createdAt,value
2018-02-03T00:02:05.357Z,7.87
2018-02-03T00:04:37.733Z,13.87
2018-02-03T00:07:06.934Z,18.00
2018-02-03T00:09:36.456Z,10.90
2018-02-03T00:12:08.268Z,13.00
2018-02-03T00:14:40.213Z,10.63
2018-02-03T00:17:09.723Z,14.03
2018-02-03T00:19:40.022Z,8.60
2018-02-03T00:22:11.213Z,10.30
2018-02-03T00:24:40.629Z,7.67
2018-02-03T00:27:09.502Z,7.07
2018-02-03T00:29:52.910Z,9.30
2018-02-03T00:32:22.813Z,7.47
2018-02-03T00:34:51.741Z,11.70
2018-02-03T00:37:20.505Z,9.90
2018-02-03T00:39:49.569Z,7.87
2018-02-03T00:42:18.750Z,6.87
2018-02-03T00:44:48.388Z,7.80
2018-02-03T00:47:17.469Z,9.93
2018-02-03T00:49:46.238Z,10.13
2018-02-03T00:52:15.058Z,6.13
2018-02-03T00:54:44.158Z,7.37
2018-02-03T00:57:12.962Z,7.07
2018-02-03T00:59:42.004Z,6.80
2018-02-03T01:02:11.093Z,9.30
2018-02-03T01:04:40.059Z,10.67
2018-02-03T01:07:08.884Z,6.70
2018-02-03T01:09:40.067Z,10.80
2018-02-03T01:12:08.890Z,8.40
2018-02-03T01:14:38.219Z,6.13
2018-02-03T01:17:07.340Z,8.83
2018-02-03T01:19:37.400Z,8.83
2018-02-03T01:22:06.257Z,7.97
2018-02-03T01:24:36.422Z,11.07
2018-02-03T01:27:05.807Z,6.80
2018-02-03T01:29:36.919Z,8.77
2018-02-03T01:32:06.336Z,9.03
2018-02-03T01:34:36.016Z,11.57
2018-02-03T01:37:05.159Z,11.33
2018-02-03T01:39:36.519Z,11.73
2018-02-03T01:42:06.126Z,8.47
2018-02-03T01:44:35.734Z,11.17
2018-02-03T01:47:04.928Z,13.30
2018-02-03T01:49:34.709Z,13.73
2018-02-03T01:52:05.303Z,11.13
2018-02-03T01:54:34.740Z,13.10
2018-02-03T01:57:04.227Z,13.63
2018-02-03T01:59:33.297Z,12.10
2018-02-03T02:02:03.360Z,15.17
2018-02-03T02:04:32.508Z,11.20
2018-02-03T02:07:02.779Z,14.93
2018-02-03T02:09:31.546Z,10.90
2018-02-03T02:12:00.485Z,11.50
2018-02-03T02:14:29.278Z,16.50
2018-02-03T02:16:58.085Z,10.90
2018-02-03T02:19:27.179Z,9.80
2018-02-03T02:21:56.040Z,8.57
2018-02-03T02:24:24.917Z,8.47
2018-02-03T02:26:53.984Z,9.30
2018-02-03T02:29:22.883Z,7.57
2018-02-03T02:31:51.656Z,8.33
2018-02-03T02:34:20.832Z,7.23
2018-02-03T02:36:49.881Z,6.83
2018-02-03T02:39:18.812Z,8.03
2018-02-03T02:41:48.197Z,7.73
2018-02-03T02:44:17.389Z,7.63
2018-02-03T02:46:46.165Z,6.20
2018-02-03T02:49:15.068Z,5.83
2018-02-03T02:51:44.267Z,6.67
2018-02-03T02:54:13.117Z,5.90
2018-02-03T02:57:44.680Z,5.23
2018-02-03T03:00:13.749Z,5.83
2018-02-03T03:02:43.515Z,5.63
2018-02-03T03:05:12.604Z,5.80
2018-02-03T03:07:41.748Z,6.97
2018-02-03T03:10:10.648Z,7.03
2018-02-03T03:12:40.094Z,9.23
2018-02-03T03:15:09.245Z,5.77
2018-02-03T03:17:38.538Z,12.63
2018-02-03T03:20:07.308Z,9.20
2018-02-03T03:22:38.299Z,8.43
2018-02-03T03:25:07.828Z,6.37
2018-02-03T03:27:37.240Z,17.03
2018-02-03T03:30:06.017Z,5.60
2018-02-03T03:32:35.739Z,8.50
2018-02-03T03:35:04.796Z,7.47
2018-02-03T03:37:33.720Z,6.90
2018-02-03T03:41:05.309Z,7.43
2018-02-03T03:43:35.005Z,6.20
2018-02-03T03:46:04.680Z,9.03
2018-02-03T03:48:33.718Z,7.83
2018-02-03T03:51:03.060Z,5.60
2018-02-03T03:53:32.182Z,12.40
2018-02-03T03:56:03.111Z,7.40
2018-02-03T03:58:32.452Z,8.10
2018-02-03T04:01:01.473Z,6.30
2018-02-03T04:03:30.318Z,8.50
2018-02-03T04:05:59.439Z,7.13
2018-02-03T04:08:28.636Z,7.33
2018-02-03T04:10:57.438Z,7.20
2018-02-03T04:13:26.459Z,7.00
2018-02-03T04:15:56.518Z,7.53
2018-02-03T04:18:25.338Z,8.17
2018-02-03T04:20:54.132Z,7.67
2018-02-03T04:23:23.296Z,8.03
2018-02-03T04:25:52.140Z,9.20
2018-02-03T04:28:20.981Z,8.07
2018-02-03T04:30:49.864Z,7.00
2018-02-03T04:33:18.927Z,8.37
2018-02-03T04:35:48.675Z,9.80
2018-02-03T04:38:17.496Z,9.37
2018-02-03T04:40:46.281Z,7.63
2018-02-03T04:43:15.070Z,8.07
2018-02-03T04:45:43.950Z,9.60
2018-02-03T04:48:12.763Z,9.30
2018-02-03T04:50:42.221Z,8.80
2018-02-03T04:53:11.008Z,10.20
2018-02-03T04:55:41.253Z,11.57
2018-02-03T04:58:10.050Z,8.93
2018-02-03T05:00:39.152Z,7.50
2018-02-03T05:03:07.924Z,10.30
2018-02-03T05:05:39.327Z,13.80
2018-02-03T05:08:08.125Z,15.73
2018-02-03T05:10:37.884Z,11.83
2018-02-03T05:13:07.673Z,11.67
2018-02-03T05:15:37.811Z,10.53
2018-02-03T05:18:06.575Z,9.33
2018-02-03T05:20:36.467Z,13.50
2018-02-03T05:23:05.646Z,10.83
2018-02-03T05:25:35.417Z,10.50
2018-02-03T05:28:05.340Z,11.67
2018-02-03T05:30:35.708Z,9.23
2018-02-03T05:33:04.837Z,8.47
2018-02-03T05:35:34.029Z,11.57
2018-02-03T05:38:04.118Z,14.83
2018-02-03T05:40:32.957Z,9.27
2018-02-03T05:43:02.253Z,8.70
2018-02-03T05:45:31.124Z,10.37
2018-02-03T05:48:00.318Z,11.47
2018-02-03T05:50:29.129Z,12.90
2018-02-03T05:52:57.937Z,10.90
2018-02-03T05:55:27.945Z,11.20
2018-02-03T05:57:56.988Z,14.73
2018-02-03T06:00:25.825Z,9.63
2018-02-03T06:02:54.638Z,12.73
2018-02-03T06:05:23.559Z,11.63
2018-02-03T06:07:52.656Z,13.20
2018-02-03T06:10:21.473Z,15.23
2018-02-03T06:12:50.597Z,13.83
2018-02-03T06:15:19.984Z,45.43
2018-02-03T06:17:48.863Z,11.90
2018-02-03T06:20:17.688Z,11.60
2018-02-03T06:22:47.751Z,12.30
2018-02-03T06:25:17.214Z,15.70
2018-02-03T06:27:48.101Z,12.83
2018-02-03T06:30:16.887Z,15.73
2018-02-03T06:32:47.292Z,18.50
2018-02-03T06:35:16.086Z,12.33
2018-02-03T06:37:44.983Z,15.93
2018-02-03T06:40:14.633Z,11.70
2018-02-03T06:42:44.836Z,14.43
2018-02-03T06:45:13.730Z,13.20
2018-02-03T06:47:43.848Z,9.57
2018-02-03T06:50:13.112Z,13.33
2018-02-03T06:52:42.265Z,16.10
2018-02-03T06:55:15.044Z,13.13
2018-02-03T06:57:44.927Z,17.33
2018-02-03T07:00:13.913Z,13.20
2018-02-03T07:02:43.252Z,11.70
2018-02-03T07:05:12.124Z,13.27
2018-02-03T07:07:41.460Z,12.17
2018-02-03T07:10:10.781Z,14.73
2018-02-03T07:12:40.840Z,15.57
2018-02-03T07:15:09.746Z,16.70
2018-02-03T07:17:39.700Z,34.17
2018-02-03T07:20:08.707Z,14.03
2018-02-03T07:22:41.665Z,13.93
2018-02-03T07:25:11.022Z,13.10
2018-02-03T07:27:39.832Z,10.87
2018-02-03T07:30:09.015Z,15.40
2018-02-03T07:32:38.753Z,17.17
2018-02-03T07:35:07.608Z,16.93
2018-02-03T07:37:37.225Z,14.60
2018-02-03T07:40:07.885Z,16.33
2018-02-03T07:42:39.577Z,18.33
2018-02-03T07:45:08.513Z,19.17
2018-02-03T07:47:37.654Z,19.97
2018-02-03T07:50:06.861Z,22.20
2018-02-03T07:52:37.185Z,15.20
2018-02-03T07:55:06.061Z,23.83
2018-02-03T07:57:36.258Z,15.77
2018-02-03T08:00:06.029Z,22.70
2018-02-03T08:02:35.716Z,22.43
2018-02-03T08:05:04.971Z,14.10
2018-02-03T08:07:34.598Z,18.10
2018-02-03T08:10:06.044Z,25.23
2018-02-03T08:12:35.801Z,20.60
2018-02-03T08:15:04.779Z,20.87
2018-02-03T08:17:33.583Z,27.60
2018-02-03T08:20:04.391Z,22.07
2018-02-03T08:22:33.285Z,24.20
2018-02-03T08:25:02.716Z,24.43
2018-02-03T08:27:31.953Z,31.93
2018-02-03T08:30:00.884Z,28.23
2018-02-03T08:32:29.900Z,30.87
2018-02-03T08:34:59.196Z,30.70
2018-02-03T08:37:28.029Z,27.60
2018-02-03T08:39:57.050Z,27.70
2018-02-03T08:42:27.345Z,20.73
2018-02-03T08:44:56.433Z,26.50
2018-02-03T08:47:25.279Z,27.33
2018-02-03T08:49:55.108Z,24.10
2018-02-03T08:52:24.206Z,35.93
2018-02-03T08:54:53.136Z,28.00
2018-02-03T08:57:24.466Z,30.27
2018-02-03T08:59:53.325Z,29.73
2018-02-03T09:02:22.236Z,28.10
2018-02-03T09:04:51.654Z,27.03
2018-02-03T09:07:20.545Z,33.30
2018-02-03T09:09:50.369Z,25.90
2018-02-03T09:12:20.618Z,24.87
2018-02-03T09:14:51.447Z,32.23
2018-02-03T09:17:20.234Z,33.30
2018-02-03T09:19:49.399Z,31.20
2018-02-03T09:22:19.983Z,31.70
2018-02-03T09:24:48.932Z,27.47
2018-02-03T09:27:18.440Z,25.87
2018-02-03T09:29:47.248Z,28.33
2018-02-03T09:32:31.168Z,36.00
2018-02-03T09:35:01.682Z,34.37
2018-02-03T09:37:30.506Z,28.63
2018-02-03T09:39:59.399Z,28.63
2018-02-03T09:42:28.544Z,34.70
2018-02-03T09:44:57.406Z,26.50
2018-02-03T09:47:26.222Z,34.23
2018-02-03T09:49:55.331Z,27.30
2018-02-03T09:52:24.208Z,24.40
2018-02-03T09:54:53.079Z,52.43
2018-02-03T09:57:22.292Z,33.53
2018-02-03T09:59:51.138Z,23.30
2018-02-03T10:02:20.012Z,22.83
2018-02-03T10:04:50.774Z,29.30
2018-02-03T10:07:19.713Z,16.90
2018-02-03T10:09:49.109Z,13.90
2018-02-03T10:12:18.348Z,19.67
2018-02-03T10:14:47.158Z,22.23
2018-02-03T10:17:15.968Z,21.40
2018-02-03T10:19:45.567Z,16.77
2018-02-03T10:22:14.571Z,19.73
2018-02-03T10:24:43.554Z,43.27
2018-02-03T10:27:12.942Z,25.97
2018-02-03T10:29:42.172Z,22.57
2018-02-03T10:32:10.930Z,22.53
2018-02-03T10:34:40.544Z,21.10
2018-02-03T10:37:09.330Z,23.13
2018-02-03T10:39:39.112Z,22.70
2018-02-03T10:42:08.484Z,34.13
2018-02-03T10:44:39.858Z,25.80
2018-02-03T10:47:11.245Z,23.60
2018-02-03T10:49:45.120Z,24.50
2018-02-03T10:52:14.367Z,22.10
2018-02-03T10:54:45.023Z,27.03
2018-02-03T10:57:16.364Z,27.70
2018-02-03T10:59:45.177Z,25.13
2018-02-03T11:02:14.296Z,24.17
2018-02-03T11:04:43.573Z,24.60
2018-02-03T11:07:12.636Z,25.10
2018-02-03T11:09:44.568Z,26.73
2018-02-03T11:12:15.195Z,27.07
2018-02-03T11:14:46.511Z,25.27
2018-02-03T11:17:18.176Z,25.57
2018-02-03T11:19:50.562Z,26.03
2018-02-03T11:22:22.169Z,29.50
2018-02-03T11:24:51.846Z,29.97
2018-02-03T11:27:20.851Z,23.00
2018-02-03T11:29:49.778Z,23.57
2018-02-03T11:32:18.907Z,34.50
2018-02-03T11:34:47.802Z,27.53
2018-02-03T11:37:16.725Z,29.80
2018-02-03T11:39:45.984Z,32.13
2018-02-03T11:42:14.929Z,28.70
2018-02-03T11:44:46.378Z,28.73
2018-02-03T11:47:17.137Z,19.70
2018-02-03T11:49:47.292Z,26.97
2018-02-03T11:52:16.173Z,21.47
2018-02-03T11:54:45.663Z,18.60
2018-02-03T11:57:14.605Z,21.20
2018-02-03T11:59:43.661Z,28.47
2018-02-03T12:02:12.920Z,19.77
2018-02-03T12:04:42.342Z,20.30
2018-02-03T12:07:11.261Z,17.77
2018-02-03T12:09:43.833Z,15.33
2018-02-03T12:12:14.220Z,19.97
2018-02-03T12:14:45.351Z,17.30
2018-02-03T12:17:15.725Z,16.60
2018-02-03T12:19:44.957Z,17.57
2018-02-03T12:22:14.096Z,16.80
2018-02-03T12:24:43.567Z,24.70
2018-02-03T12:27:13.602Z,14.40
2018-02-03T12:29:43.308Z,13.80
2018-02-03T12:32:16.717Z,14.37
2018-02-03T12:34:47.089Z,19.50
2018-02-03T12:37:16.438Z,14.73
2018-02-03T12:39:46.249Z,12.80
2018-02-03T12:42:15.364Z,14.17
2018-02-03T12:44:44.307Z,11.57
2018-02-03T12:47:13.889Z,13.00
2018-02-03T12:49:43.351Z,12.80
2018-02-03T12:52:12.248Z,10.87
2018-02-03T12:54:41.673Z,10.73
2018-02-03T12:57:10.843Z,10.33
2018-02-03T13:02:15.227Z,11.10
2018-02-03T13:04:44.691Z,16.17
2018-02-03T13:07:16.304Z,17.07
2018-02-03T13:10:49.203Z,13.83
2018-02-03T13:13:19.221Z,12.53
2018-02-03T13:15:49.893Z,14.70
2018-02-03T13:18:20.371Z,9.77
2018-02-03T13:20:49.632Z,8.43
2018-02-03T13:23:18.470Z,12.50
2018-02-03T13:25:47.587Z,11.03
2018-02-03T13:28:16.709Z,8.20
2018-02-03T13:30:47.739Z,7.07
2018-02-03T13:33:16.971Z,10.83
2018-02-03T13:35:48.001Z,11.17
2018-02-03T13:38:17.146Z,7.53
2018-02-03T13:40:46.023Z,9.57
2018-02-03T13:43:15.273Z,8.53
2018-02-03T13:45:44.757Z,11.13
2018-02-03T13:48:14.465Z,13.13
2018-02-03T13:50:44.970Z,10.90
2018-02-03T13:53:13.829Z,12.20
2018-02-03T13:55:42.054Z,12.63
2018-02-03T13:58:16.614Z,13.20
2018-02-03T14:00:45.563Z,12.93
2018-02-03T14:03:14.466Z,23.70
2018-02-03T14:05:44.272Z,18.20
2018-02-03T14:08:13.788Z,11.73
2018-02-03T14:10:42.853Z,16.00
2018-02-03T14:13:13.088Z,12.87
2018-02-03T14:15:42.500Z,14.73
2018-02-03T14:18:11.540Z,13.90
2018-02-03T14:20:44.184Z,13.23
2018-02-03T14:23:13.527Z,13.80
2018-02-03T14:25:45.598Z,17.07
2018-02-03T14:28:14.919Z,19.10
2018-02-03T14:30:43.977Z,18.87
2018-02-03T14:33:13.030Z,12.83
2018-02-03T14:35:42.356Z,17.17
2018-02-03T14:38:12.559Z,13.60
2018-02-03T14:40:42.156Z,15.13
2018-02-03T14:43:11.585Z,14.40
2018-02-03T14:45:41.157Z,16.23
2018-02-03T14:48:10.365Z,13.67
2018-02-03T14:50:43.602Z,18.03
2018-02-03T14:53:12.474Z,14.53
2018-02-03T14:55:41.470Z,13.33
2018-02-03T14:58:10.557Z,18.47
2018-02-03T15:00:39.766Z,14.23
2018-02-03T15:03:08.826Z,21.53
2018-02-03T15:05:39.129Z,17.50
2018-02-03T15:08:08.116Z,21.43
2018-02-03T15:10:39.355Z,10.97
2018-02-03T15:13:08.233Z,11.37
2018-02-03T15:15:38.104Z,9.97
2018-02-03T15:18:07.720Z,13.20
2018-02-03T15:20:37.181Z,9.20
2018-02-03T15:23:06.863Z,12.03
2018-02-03T15:25:36.964Z,15.10
2018-02-03T15:28:05.898Z,10.90
2018-02-03T15:30:34.722Z,18.00
2018-02-03T15:33:04.714Z,51.20
2018-02-03T15:35:33.588Z,13.27
2018-02-03T15:38:03.907Z,11.13
2018-02-03T15:40:33.711Z,15.13
2018-02-03T15:43:09.008Z,11.33
2018-02-03T15:45:39.025Z,16.60
2018-02-03T15:48:08.904Z,21.40
2018-02-03T15:50:41.301Z,20.00
2018-02-03T15:53:10.417Z,22.90
2018-02-03T15:55:39.990Z,21.73
2018-02-03T15:58:11.525Z,23.43
2018-02-03T16:00:42.524Z,22.97
2018-02-03T16:03:11.734Z,28.37
2018-02-03T16:05:40.955Z,18.93
2018-02-03T16:08:09.868Z,23.73
2018-02-03T16:10:40.381Z,17.70
2018-02-03T16:13:10.146Z,17.27
2018-02-03T16:15:40.111Z,22.10
2018-02-03T16:18:09.074Z,15.43
2018-02-03T16:20:41.513Z,19.73
2018-02-03T16:23:12.951Z,18.43
2018-02-03T16:25:44.336Z,16.50
2018-02-03T16:30:40.385Z,16.83
2018-02-03T16:33:09.509Z,17.80
2018-02-03T16:35:39.628Z,17.57
2018-02-03T16:38:09.417Z,15.73
2018-02-03T16:40:39.164Z,15.80
2018-02-03T16:43:08.008Z,18.57
2018-02-03T16:45:40.387Z,15.27
2018-02-03T16:48:09.341Z,15.70
2018-02-03T16:50:38.632Z,23.90
2018-02-03T16:53:07.849Z,18.70
2018-02-03T16:55:37.364Z,20.07
2018-02-03T16:58:07.216Z,13.47
2018-02-03T17:00:40.153Z,15.47
2018-02-03T17:03:09.404Z,15.63
2018-02-03T17:05:39.654Z,16.03
2018-02-03T17:08:09.888Z,12.63
2018-02-03T17:10:39.805Z,14.10
2018-02-03T17:13:10.590Z,15.93
2018-02-03T17:15:42.885Z,17.77
2018-02-03T17:18:11.870Z,17.60
2018-02-03T17:20:40.940Z,19.93
2018-02-03T17:23:10.275Z,11.83
2018-02-03T17:25:40.433Z,14.57
2018-02-03T17:28:13.171Z,17.57
2018-02-03T17:30:42.881Z,14.83
2018-02-03T17:33:11.732Z,14.43
2018-02-03T17:35:41.052Z,19.40
2018-02-03T17:38:47.357Z,16.57
2018-02-03T17:41:16.308Z,14.17
2018-02-03T17:43:45.606Z,15.73
2018-02-03T17:47:16.779Z,17.23
2018-02-03T17:49:46.614Z,15.60
2018-02-03T17:52:15.393Z,24.60
2018-02-03T17:54:44.634Z,17.53
2018-02-03T17:57:49.081Z,18.70
2018-02-03T18:00:17.914Z,13.83
2018-02-03T18:02:48.104Z,15.50
2018-02-03T18:05:17.891Z,15.90
2018-02-03T18:07:47.252Z,18.13
2018-02-03T18:10:16.429Z,15.23
2018-02-03T18:12:45.339Z,18.73
2018-02-03T18:15:14.369Z,15.60
2018-02-03T18:17:44.012Z,17.63
2018-02-03T18:20:12.933Z,20.33
2018-02-03T18:22:42.620Z,16.70
2018-02-03T18:25:11.788Z,21.17
2018-02-03T18:27:40.824Z,21.00
2018-02-03T18:30:09.621Z,19.20
2018-02-03T18:32:42.853Z,20.73
2018-02-03T18:35:11.784Z,22.33
2018-02-03T18:37:41.112Z,18.97
2018-02-03T18:40:10.303Z,20.80
2018-02-03T18:42:40.518Z,19.00
2018-02-03T18:45:19.177Z,18.33
2018-02-03T18:47:51.029Z,18.80
2018-02-03T18:50:19.917Z,18.43
2018-02-03T18:52:52.513Z,20.73
2018-02-03T18:55:34.242Z,21.47
2018-02-03T18:58:08.853Z,24.20
2018-02-03T19:00:42.877Z,21.03
2018-02-03T19:03:14.339Z,22.10
2018-02-03T19:05:43.234Z,25.30
2018-02-03T19:08:12.129Z,23.40
2018-02-03T19:10:41.268Z,20.60
2018-02-03T19:13:10.380Z,27.53
2018-02-03T19:15:43.089Z,19.43
2018-02-03T19:18:11.961Z,21.43
2018-02-03T19:20:41.734Z,23.93
2018-02-03T19:23:10.540Z,23.53
2018-02-03T19:25:40.463Z,22.30
2018-02-03T19:28:09.546Z,22.40
2018-02-03T19:30:39.488Z,26.70
2018-02-03T19:33:08.877Z,19.77
2018-02-03T19:35:38.297Z,23.50
2018-02-03T19:38:07.161Z,24.60
2018-02-03T19:40:36.581Z,24.23
2018-02-03T19:43:05.808Z,22.57
2018-02-03T19:45:34.671Z,31.40
2018-02-03T19:48:04.493Z,23.10
2018-02-03T19:50:33.752Z,24.27
2018-02-03T19:53:03.653Z,23.83
2018-02-03T19:55:32.468Z,26.67
2018-02-03T19:58:03.195Z,21.60
2018-02-03T20:00:32.029Z,23.73
2018-02-03T20:03:00.837Z,25.17
2018-02-03T20:05:29.905Z,26.73
2018-02-03T20:07:58.778Z,25.27
2018-02-03T20:10:27.568Z,18.27
2018-02-03T20:12:56.670Z,23.73
2018-02-03T20:15:25.942Z,27.87
2018-02-03T20:17:54.847Z,31.03
2018-02-03T20:20:23.872Z,29.30
2018-02-03T20:22:52.696Z,25.70
2018-02-03T20:25:21.655Z,32.10
2018-02-03T20:27:51.500Z,28.13
2018-02-03T20:30:20.414Z,25.13
2018-02-03T20:32:49.229Z,28.17
2018-02-03T20:35:18.309Z,26.90
2018-02-03T20:37:48.944Z,30.57
2018-02-03T20:40:17.793Z,31.03
2018-02-03T20:42:47.182Z,26.00
2018-02-03T20:45:16.036Z,22.30
2018-02-03T20:47:46.437Z,32.13
2018-02-03T20:50:15.752Z,29.60
2018-02-03T20:52:44.790Z,32.60
2018-02-03T20:55:13.635Z,30.03
2018-02-03T20:57:43.217Z,32.50
2018-02-03T21:00:12.042Z,28.93
2018-02-03T21:02:44.465Z,33.30
2018-02-03T21:07:41.430Z,37.10
2018-02-03T21:10:11.304Z,27.53
2018-02-03T21:12:41.359Z,46.20
2018-02-03T21:15:10.124Z,33.87
2018-02-03T21:17:40.729Z,29.83
2018-02-03T21:20:09.874Z,56.80
2018-02-03T21:22:39.743Z,30.97
2018-02-03T21:25:08.689Z,29.20
2018-02-03T21:27:40.092Z,30.07
2018-02-03T21:30:08.921Z,32.20
2018-02-03T21:32:40.594Z,30.37
2018-02-03T21:35:09.709Z,28.77
2018-02-03T21:37:39.702Z,32.40
2018-02-03T21:40:08.901Z,28.77
2018-02-03T21:42:39.920Z,31.63
2018-02-03T21:45:09.404Z,31.73
2018-02-03T21:47:39.477Z,30.00
2018-02-03T21:50:09.242Z,25.93
2018-02-03T21:52:38.553Z,24.67
2018-02-03T21:55:07.938Z,38.73
2018-02-03T21:57:37.432Z,30.97
2018-02-03T22:00:07.128Z,26.87
2018-02-03T22:02:36.372Z,31.43
2018-02-03T22:05:05.609Z,26.63
2018-02-03T22:07:34.424Z,24.93
2018-02-03T22:10:05.764Z,27.50
2018-02-03T22:12:34.556Z,30.40
2018-02-03T22:15:09.016Z,32.23
2018-02-03T22:17:42.365Z,29.73
2018-02-03T22:20:11.669Z,30.73
2018-02-03T22:22:41.648Z,31.10
2018-02-03T22:25:10.456Z,30.87
2018-02-03T22:27:41.329Z,29.03
2018-02-03T22:30:10.098Z,36.40
2018-02-03T22:32:40.307Z,24.50
2018-02-03T22:35:09.401Z,26.80
2018-02-03T22:37:40.558Z,29.57
2018-02-03T22:40:09.943Z,33.83
2018-02-03T22:42:39.660Z,26.73
2018-02-03T22:45:08.480Z,30.53
2018-02-03T22:47:38.738Z,30.47
2018-02-03T22:50:07.569Z,27.53
2018-02-03T22:52:36.415Z,30.63
2018-02-03T22:55:05.200Z,25.40
2018-02-03T22:57:34.100Z,26.67
2018-02-03T23:00:05.300Z,28.70
2018-02-03T23:02:38.988Z,25.33
2018-02-03T23:05:09.209Z,28.67
2018-02-03T23:07:39.860Z,27.10
2018-02-03T23:10:09.032Z,28.20
2018-02-03T23:12:38.076Z,32.20
2018-02-03T23:15:07.264Z,29.67
2018-02-03T23:17:36.343Z,30.40
2018-02-03T23:20:05.960Z,25.17
2018-02-03T23:22:34.748Z,29.13
2018-02-03T23:25:04.245Z,35.90
2018-02-03T23:27:33.048Z,28.47
2018-02-03T23:30:04.055Z,30.30
2018-02-03T23:32:33.112Z,33.20
2018-02-03T23:35:02.277Z,24.80
2018-02-03T23:37:31.045Z,33.77
2018-02-03T23:40:00.294Z,26.17
2018-02-03T23:42:29.195Z,28.80
2018-02-03T23:44:58.232Z,29.80
2018-02-03T23:47:27.487Z,32.20
2018-02-03T23:49:56.355Z,25.20
2018-02-03T23:52:25.206Z,28.43
2018-02-03T23:54:54.541Z,30.87
2018-02-03T23:57:23.408Z,27.20
2018-02-03T23:59:52.541Z,33.73
